createdAt,value
2023-03-27T00:01:28.026Z,98.24
2023-03-27T00:03:55.692Z,100.00
2023-03-27T00:06:34.610Z,99.03
2023-03-27T00:09:03.739Z,97.52
2023-03-27T00:11:30.578Z,97.85
2023-03-27T00:13:57.542Z,99.34
2023-03-27T00:16:26.846Z,97.85
2023-03-27T00:18:54.724Z,100.00
2023-03-27T00:21:22.603Z,98.82
2023-03-27T00:23:50.325Z,99.43
2023-03-27T00:26:17.582Z,99.84
2023-03-27T00:28:51.010Z,97.75
2023-03-27T00:31:18.206Z,99.33
2023-03-27T00:33:46.747Z,98.22
2023-03-27T00:36:15.389Z,99.67
2023-03-27T00:38:43.945Z,95.79
2023-03-27T00:41:11.154Z,99.66
2023-03-27T00:43:46.272Z,99.24
2023-03-27T00:46:17.637Z,98.45
2023-03-27T00:48:52.120Z,98.05
2023-03-27T00:51:20.276Z,96.99
2023-03-27T00:53:52.417Z,97.79
2023-03-27T00:56:20.151Z,96.43
2023-03-27T00:58:50.021Z,97.25
2023-03-27T01:01:19.810Z,98.49
2023-03-27T01:03:50.505Z,96.36
2023-03-27T01:06:21.461Z,97.55
2023-03-27T01:08:48.704Z,97.25
2023-03-27T01:11:43.852Z,96.19
2023-03-27T01:14:24.386Z,96.80
2023-03-27T01:17:36.225Z,97.09
2023-03-27T01:20:23.190Z,96.69
2023-03-27T01:23:02.290Z,95.50
2023-03-27T01:25:57.558Z,95.58
2023-03-27T01:28:29.138Z,96.01
2023-03-27T01:31:00.192Z,93.92
2023-03-27T01:33:47.109Z,95.30
2023-03-27T01:36:23.724Z,98.15
2023-03-27T01:39:19.964Z,99.20
2023-03-27T01:41:56.633Z,97.29
2023-03-27T01:44:54.772Z,96.11
2023-03-27T01:47:39.862Z,98.64
2023-03-27T01:50:24.200Z,98.31
2023-03-27T01:53:05.580Z,98.70
2023-03-27T01:55:36.817Z,96.16
2023-03-27T01:58:28.279Z,97.96
2023-03-27T02:01:00.640Z,100.00
2023-03-27T02:03:33.760Z,96.97
2023-03-27T02:06:06.015Z,98.20
2023-03-27T02:08:45.024Z,100.00
2023-03-27T02:11:15.483Z,100.00
2023-03-27T02:13:50.471Z,100.00
2023-03-27T02:16:20.286Z,100.00
2023-03-27T02:18:56.836Z,100.00
2023-03-27T02:21:24.314Z,100.00
2023-03-27T02:23:53.145Z,100.00
2023-03-27T02:26:20.250Z,100.00
2023-03-27T02:29:35.855Z,100.00
2023-03-27T02:32:26.982Z,100.00
2023-03-27T02:35:05.492Z,100.00
2023-03-27T02:38:04.594Z,100.00
2023-03-27T02:40:52.092Z,100.00
2023-03-27T02:43:42.383Z,100.00
2023-03-27T02:46:21.951Z,100.00
2023-03-27T02:48:52.992Z,100.00
2023-03-27T02:51:25.014Z,100.00
2023-03-27T02:54:00.217Z,100.00
2023-03-27T02:56:32.262Z,100.00
2023-03-27T02:59:04.156Z,100.00
2023-03-27T03:01:36.525Z,100.00
2023-03-27T03:04:29.984Z,100.00
2023-03-27T03:07:06.746Z,100.00
2023-03-27T03:09:34.583Z,100.00
2023-03-27T03:12:08.203Z,100.00
2023-03-27T03:14:41.489Z,100.00
2023-03-27T03:17:08.662Z,100.00
2023-03-27T03:19:36.094Z,100.00
2023-03-27T03:22:04.503Z,100.00
2023-03-27T03:24:34.493Z,100.00
2023-03-27T03:27:05.756Z,100.00
2023-03-27T03:29:43.748Z,100.00
2023-03-27T03:32:16.587Z,100.00
2023-03-27T03:34:48.197Z,100.00
2023-03-27T03:37:15.873Z,100.00
2023-03-27T03:39:43.070Z,100.00
2023-03-27T03:42:10.461Z,100.00
2023-03-27T03:44:51.535Z,100.00
2023-03-27T03:47:20.652Z,100.00
2023-03-27T03:49:47.866Z,100.00
2023-03-27T03:52:14.953Z,100.00
2023-03-27T03:54:42.637Z,100.00
2023-03-27T03:57:10.078Z,100.00
2023-03-27T03:59:37.262Z,100.00
2023-03-27T04:02:30.244Z,100.00
2023-03-27T04:05:08.616Z,100.00
2023-03-27T04:07:36.852Z,100.00
2023-03-27T04:10:29.713Z,100.00
2023-03-27T04:12:58.954Z,100.00
2023-03-27T04:15:28.964Z,100.00
2023-03-27T04:18:21.842Z,100.00
2023-03-27T04:20:54.599Z,100.00
2023-03-27T04:23:31.427Z,100.00
2023-03-27T04:26:00.440Z,100.00
2023-03-27T04:28:36.088Z,100.00
2023-03-27T04:31:22.914Z,100.00
2023-03-27T04:34:09.407Z,100.00
2023-03-27T04:36:42.573Z,100.00
2023-03-27T04:39:11.972Z,100.00
2023-03-27T04:41:38.890Z,100.00
2023-03-27T04:44:07.283Z,100.00
2023-03-27T04:46:38.443Z,100.00
2023-03-27T04:49:08.671Z,100.00
2023-03-27T04:51:56.315Z,100.00
2023-03-27T04:54:26.701Z,100.00
2023-03-27T04:56:53.588Z,100.00
2023-03-27T04:59:22.436Z,100.00
2023-03-27T05:02:13.178Z,100.00
2023-03-27T05:04:51.296Z,100.00
2023-03-27T05:07:20.202Z,100.00
2023-03-27T05:09:47.951Z,100.00
2023-03-27T05:12:14.896Z,100.00
2023-03-27T05:14:49.260Z,100.00
2023-03-27T05:17:34.680Z,100.00
2023-03-27T05:20:01.940Z,100.00
2023-03-27T05:22:32.355Z,100.00
2023-03-27T05:25:08.647Z,100.00
2023-03-27T05:27:35.668Z,100.00
2023-03-27T05:30:02.697Z,100.00
2023-03-27T05:32:30.409Z,100.00
2023-03-27T05:35:12.414Z,100.00
2023-03-27T05:37:47.630Z,100.00
2023-03-27T05:40:25.951Z,100.00
2023-03-27T05:42:53.728Z,100.00
2023-03-27T05:45:22.535Z,100.00
2023-03-27T05:47:52.207Z,100.00
2023-03-27T05:50:21.723Z,100.00
2023-03-27T05:52:55.202Z,100.00
2023-03-27T05:55:27.991Z,100.00
2023-03-27T05:57:55.960Z,100.00
2023-03-27T06:00:25.945Z,100.00
2023-03-27T06:02:59.320Z,100.00
2023-03-27T06:05:41.683Z,100.00
2023-03-27T06:08:11.770Z,100.00
2023-03-27T06:10:43.771Z,100.00
2023-03-27T06:13:24.249Z,100.00
2023-03-27T06:16:03.544Z,100.00
2023-03-27T06:18:50.742Z,100.00
2023-03-27T06:21:19.251Z,100.00
2023-03-27T06:23:46.129Z,100.00
2023-03-27T06:26:15.915Z,100.00
2023-03-27T06:28:43.628Z,100.00
2023-03-27T06:31:12.665Z,100.00
2023-03-27T06:33:43.981Z,100.00
2023-03-27T06:36:25.404Z,100.00
2023-03-27T06:38:54.415Z,100.00
2023-03-27T06:41:21.221Z,100.00
2023-03-27T06:44:05.084Z,100.00
2023-03-27T06:46:45.926Z,100.00
2023-03-27T06:49:22.398Z,100.00
2023-03-27T06:51:49.795Z,100.00
2023-03-27T06:54:20.729Z,100.00
2023-03-27T06:56:51.773Z,100.00
2023-03-27T06:59:21.618Z,100.00
2023-03-27T07:01:54.027Z,100.00
2023-03-27T07:04:42.867Z,100.00
2023-03-27T07:07:25.767Z,100.00
2023-03-27T07:09:52.714Z,100.00
2023-03-27T07:12:25.160Z,100.00
2023-03-27T07:14:52.005Z,100.00
2023-03-27T07:17:19.038Z,100.00
2023-03-27T07:19:50.611Z,100.00
2023-03-27T07:22:21.156Z,100.00
2023-03-27T07:24:48.025Z,100.00
2023-03-27T07:27:16.694Z,100.00
2023-03-27T07:29:46.051Z,100.00
2023-03-27T07:32:33.838Z,93.67
2023-03-27T07:35:08.639Z,61.02
2023-03-27T07:37:56.194Z,54.08
2023-03-27T07:41:07.209Z,48.34
2023-03-27T07:44:02.918Z,48.95
2023-03-27T07:46:41.324Z,54.86
2023-03-27T07:49:09.496Z,67.45
2023-03-27T07:51:38.887Z,82.77
2023-03-27T07:54:07.286Z,91.03
2023-03-27T07:56:38.018Z,83.81
2023-03-27T07:59:24.297Z,81.28
2023-03-27T08:01:52.021Z,87.41
2023-03-27T08:04:20.906Z,76.55
2023-03-27T08:07:05.355Z,72.23
2023-03-27T08:09:32.848Z,76.38
2023-03-27T08:11:59.982Z,77.99
2023-03-27T08:14:27.242Z,87.22
2023-03-27T08:17:08.655Z,83.91
2023-03-27T08:19:42.049Z,84.39
2023-03-27T08:22:09.311Z,77.13
2023-03-27T08:24:56.343Z,83.12
2023-03-27T08:27:25.069Z,85.37
2023-03-27T08:30:02.810Z,80.42
2023-03-27T08:32:33.869Z,75.27
2023-03-27T08:35:07.508Z,76.11
2023-03-27T08:37:35.006Z,84.84
2023-03-27T08:40:28.385Z,90.75
2023-03-27T08:43:26.357Z,87.84
2023-03-27T08:45:59.525Z,89.04
2023-03-27T08:48:40.367Z,91.59
2023-03-27T08:51:14.199Z,88.71
2023-03-27T08:54:03.088Z,89.88
2023-03-27T08:56:32.106Z,89.29
2023-03-27T08:58:58.897Z,91.35
2023-03-27T09:01:35.617Z,98.59
2023-03-27T09:04:27.202Z,98.59
2023-03-27T09:07:02.631Z,97.41
2023-03-27T09:09:55.922Z,93.75
2023-03-27T09:13:07.676Z,86.89
2023-03-27T09:15:41.728Z,93.89
2023-03-27T09:18:18.493Z,90.77
2023-03-27T09:20:51.002Z,87.04
2023-03-27T09:23:55.452Z,88.02
2023-03-27T09:26:41.529Z,90.27
2023-03-27T09:29:42.425Z,94.50
2023-03-27T09:32:39.191Z,89.96
2023-03-27T09:35:06.337Z,81.18
2023-03-27T09:37:34.113Z,80.82
2023-03-27T09:40:06.133Z,73.91
2023-03-27T09:42:37.734Z,75.76
2023-03-27T09:45:07.976Z,75.69
2023-03-27T09:47:57.213Z,72.46
2023-03-27T09:50:35.183Z,77.31
2023-03-27T09:53:16.088Z,74.66
2023-03-27T09:56:13.566Z,69.74
2023-03-27T09:58:47.056Z,64.09
2023-03-27T10:01:27.881Z,60.02
2023-03-27T10:04:00.553Z,60.46
2023-03-27T10:06:51.892Z,60.29
2023-03-27T10:10:03.692Z,58.30
2023-03-27T10:12:32.856Z,57.74
2023-03-27T10:15:03.537Z,55.61
2023-03-27T10:17:40.375Z,56.96
2023-03-27T10:20:17.489Z,57.68
2023-03-27T10:23:08.662Z,71.00
2023-03-27T10:25:42.083Z,84.24
2023-03-27T10:28:36.669Z,91.13
2023-03-27T10:31:38.005Z,99.68
2023-03-27T10:34:29.455Z,96.64
2023-03-27T10:37:31.139Z,98.74
2023-03-27T10:40:34.610Z,100.00
2023-03-27T10:43:14.179Z,99.62
2023-03-27T10:45:49.873Z,98.93
2023-03-27T10:48:29.157Z,93.20
2023-03-27T10:50:59.356Z,88.19
2023-03-27T10:53:52.400Z,88.93
2023-03-27T10:56:41.343Z,86.41
2023-03-27T10:59:21.556Z,82.24
2023-03-27T11:02:01.868Z,87.72
2023-03-27T11:04:38.861Z,85.91
2023-03-27T11:07:17.996Z,80.36
2023-03-27T11:09:53.910Z,78.04
2023-03-27T11:12:22.268Z,77.96
2023-03-27T11:15:03.077Z,77.97
2023-03-27T11:17:42.224Z,80.38
2023-03-27T11:20:54.217Z,76.59
2023-03-27T11:23:37.476Z,70.25
2023-03-27T11:26:24.560Z,70.50
2023-03-27T11:29:40.918Z,68.02
2023-03-27T11:32:18.703Z,70.97
2023-03-27T11:35:00.040Z,66.75
2023-03-27T11:37:55.070Z,67.92
2023-03-27T11:40:37.046Z,67.31
2023-03-27T11:43:04.672Z,65.69
2023-03-27T11:45:51.345Z,63.07
2023-03-27T11:48:31.517Z,62.74
2023-03-27T11:51:03.941Z,62.25
2023-03-27T11:54:00.551Z,57.42
2023-03-27T11:56:59.321Z,57.06
2023-03-27T12:00:05.343Z,55.28
2023-03-27T12:02:45.750Z,55.59
2023-03-27T12:05:43.199Z,56.42
2023-03-27T12:08:31.859Z,57.24
2023-03-27T12:11:02.047Z,57.84
2023-03-27T12:14:01.766Z,54.58
2023-03-27T12:17:03.251Z,53.69
2023-03-27T12:20:00.641Z,51.63
2023-03-27T12:22:42.250Z,52.27
2023-03-27T12:25:29.987Z,50.55
2023-03-27T12:28:35.279Z,50.52
2023-03-27T12:31:28.903Z,52.17
2023-03-27T12:34:23.042Z,53.06
2023-03-27T12:36:50.465Z,52.12
2023-03-27T12:39:27.397Z,52.58
2023-03-27T12:42:06.024Z,51.94
2023-03-27T12:45:29.827Z,50.67
2023-03-27T12:48:17.694Z,50.80
2023-03-27T12:50:48.497Z,50.07
2023-03-27T12:53:31.061Z,51.09
2023-03-27T12:56:10.333Z,52.17
2023-03-27T12:58:38.354Z,53.87
2023-03-27T13:01:12.939Z,53.99
2023-03-27T13:04:07.586Z,54.24
2023-03-27T13:06:44.786Z,55.25
2023-03-27T13:09:29.504Z,54.94
2023-03-27T13:12:21.597Z,54.27
2023-03-27T13:15:08.690Z,54.41
2023-03-27T13:17:40.638Z,51.27
2023-03-27T13:20:16.717Z,48.90
2023-03-27T13:23:09.832Z,48.25
2023-03-27T13:26:05.295Z,48.88
2023-03-27T13:28:36.195Z,48.30
2023-03-27T13:31:12.476Z,46.17
2023-03-27T13:34:28.822Z,48.69
2023-03-27T13:37:09.728Z,49.90
2023-03-27T13:39:48.976Z,51.95
2023-03-27T13:42:18.323Z,52.50
2023-03-27T13:45:07.793Z,54.49
2023-03-27T13:48:09.361Z,54.61
2023-03-27T13:50:59.616Z,51.72
2023-03-27T13:53:38.676Z,52.03
2023-03-27T13:56:35.353Z,51.02
2023-03-27T14:00:08.430Z,51.82
2023-03-27T14:03:15.497Z,52.13
2023-03-27T14:06:13.275Z,54.22
2023-03-27T14:09:11.143Z,53.86
2023-03-27T14:12:20.193Z,56.54
2023-03-27T14:15:23.396Z,53.29
2023-03-27T14:18:35.553Z,49.09
2023-03-27T14:21:04.069Z,48.57
2023-03-27T14:23:49.676Z,48.41
2023-03-27T14:26:29.741Z,48.39
2023-03-27T14:29:02.470Z,48.90
2023-03-27T14:31:38.085Z,48.30
2023-03-27T14:34:47.133Z,47.15
2023-03-27T14:37:39.737Z,47.60
2023-03-27T14:40:28.839Z,47.84
2023-03-27T14:43:00.140Z,50.08
2023-03-27T14:45:31.788Z,50.35
2023-03-27T14:48:23.869Z,49.93
2023-03-27T14:50:54.415Z,49.17
2023-03-27T14:53:28.286Z,48.78
2023-03-27T14:56:27.410Z,47.99
2023-03-27T14:59:11.521Z,48.29
2023-03-27T15:02:02.084Z,49.08
2023-03-27T15:04:30.275Z,48.85
2023-03-27T15:07:14.362Z,53.20
2023-03-27T15:10:06.335Z,68.79
2023-03-27T15:12:52.855Z,73.89
2023-03-27T15:15:40.344Z,78.42
2023-03-27T15:18:15.437Z,88.39
2023-03-27T15:20:42.901Z,85.01
2023-03-27T15:23:29.607Z,79.87
2023-03-27T15:26:00.169Z,80.27
2023-03-27T15:28:38.310Z,78.91
2023-03-27T15:31:05.876Z,78.47
2023-03-27T15:33:37.755Z,74.76
2023-03-27T15:36:09.787Z,73.79
2023-03-27T15:38:44.992Z,74.04
2023-03-27T15:41:15.153Z,75.74
2023-03-27T15:43:43.936Z,69.43
2023-03-27T15:46:17.729Z,68.50
2023-03-27T15:48:46.339Z,68.35
2023-03-27T15:51:30.438Z,60.54
2023-03-27T15:53:57.533Z,59.48
2023-03-27T15:56:37.103Z,56.97
2023-03-27T15:59:12.021Z,56.70
2023-03-27T16:01:41.433Z,56.07
2023-03-27T16:04:28.396Z,55.00
2023-03-27T16:07:12.107Z,54.15
2023-03-27T16:09:55.087Z,51.88
2023-03-27T16:12:28.279Z,50.02
2023-03-27T16:15:00.213Z,49.88
2023-03-27T16:17:40.518Z,48.56
2023-03-27T16:20:11.485Z,48.78
2023-03-27T16:22:39.123Z,49.83
2023-03-27T16:25:08.843Z,48.48
2023-03-27T16:27:47.177Z,49.15
2023-03-27T16:30:36.109Z,50.16
2023-03-27T16:33:04.050Z,50.46
2023-03-27T16:35:32.578Z,51.03
2023-03-27T16:37:59.826Z,53.52
2023-03-27T16:40:26.773Z,54.95
2023-03-27T16:42:53.582Z,59.95
2023-03-27T16:45:20.579Z,60.97
2023-03-27T16:47:51.571Z,58.28
2023-03-27T16:50:22.545Z,56.28
2023-03-27T16:52:50.065Z,56.93
2023-03-27T16:55:17.428Z,58.20
2023-03-27T16:57:46.157Z,57.74
2023-03-27T17:00:15.054Z,56.60
2023-03-27T17:02:44.399Z,57.23
2023-03-27T17:05:11.689Z,56.10
2023-03-27T17:07:38.506Z,55.71
2023-03-27T17:10:06.673Z,55.78
2023-03-27T17:12:33.534Z,54.91
2023-03-27T17:15:01.202Z,55.23
2023-03-27T17:17:30.556Z,56.53
2023-03-27T17:19:57.357Z,56.93
2023-03-27T17:22:26.517Z,58.00
2023-03-27T17:24:57.289Z,56.49
2023-03-27T17:27:26.939Z,56.06
2023-03-27T17:29:55.874Z,56.08
2023-03-27T17:32:24.798Z,56.66
2023-03-27T17:34:52.242Z,59.39
2023-03-27T17:37:21.045Z,59.24
2023-03-27T17:39:48.854Z,60.39
2023-03-27T17:42:16.022Z,59.17
2023-03-27T17:44:44.594Z,61.93
2023-03-27T17:47:11.825Z,62.85
2023-03-27T17:49:38.674Z,63.97
2023-03-27T17:52:08.413Z,63.25
2023-03-27T17:54:35.378Z,62.79
2023-03-27T17:57:02.526Z,60.71
2023-03-27T17:59:31.806Z,61.54
2023-03-27T18:01:59.775Z,62.61
2023-03-27T18:04:26.726Z,65.05
2023-03-27T18:06:53.639Z,64.87
2023-03-27T18:09:20.966Z,61.98
2023-03-27T18:11:48.200Z,62.82
2023-03-27T18:14:15.143Z,63.63
2023-03-27T18:16:42.350Z,61.40
2023-03-27T18:19:09.309Z,63.04
2023-03-27T18:21:36.237Z,64.01
2023-03-27T18:24:03.599Z,64.67
2023-03-27T18:26:30.459Z,68.37
2023-03-27T18:28:57.805Z,70.48
2023-03-27T18:31:25.127Z,75.56
2023-03-27T18:33:52.295Z,80.67
2023-03-27T18:36:19.247Z,76.13
2023-03-27T18:38:49.522Z,82.57
2023-03-27T18:41:17.157Z,79.10
2023-03-27T18:43:44.247Z,77.43
2023-03-27T18:46:16.840Z,77.67
2023-03-27T18:48:45.633Z,78.45
2023-03-27T18:51:12.864Z,79.68
2023-03-27T18:53:40.065Z,75.42
2023-03-27T18:56:08.093Z,78.23
2023-03-27T18:58:35.900Z,77.65
2023-03-27T19:01:09.015Z,75.42
2023-03-27T19:03:36.585Z,76.16
2023-03-27T19:06:05.654Z,73.93
2023-03-27T19:08:33.285Z,74.91
2023-03-27T19:11:00.275Z,72.56
2023-03-27T19:13:45.785Z,69.95
2023-03-27T19:16:39.127Z,71.70
2023-03-27T19:19:15.904Z,72.93
2023-03-27T19:21:57.282Z,69.21
2023-03-27T19:24:40.732Z,70.58
2023-03-27T19:27:23.920Z,69.21
2023-03-27T19:29:53.661Z,70.00
2023-03-27T19:32:21.558Z,69.33
2023-03-27T19:34:48.964Z,70.70
2023-03-27T19:37:16.233Z,73.57
2023-03-27T19:39:43.302Z,73.01
2023-03-27T19:42:10.060Z,72.03
2023-03-27T19:44:38.134Z,73.21
2023-03-27T19:47:07.413Z,71.12
2023-03-27T19:49:34.525Z,71.94
2023-03-27T19:52:31.097Z,73.70
2023-03-27T19:54:59.133Z,72.24
2023-03-27T19:57:26.200Z,71.75
2023-03-27T19:59:53.334Z,70.42
2023-03-27T20:02:21.237Z,74.21
2023-03-27T20:04:49.244Z,73.32
2023-03-27T20:07:16.043Z,77.59
2023-03-27T20:09:42.866Z,79.39
2023-03-27T20:12:11.445Z,75.12
2023-03-27T20:14:38.362Z,79.33
2023-03-27T20:17:07.937Z,76.88
2023-03-27T20:19:46.321Z,78.11
2023-03-27T20:22:13.185Z,77.41
2023-03-27T20:24:40.302Z,79.14
2023-03-27T20:27:07.131Z,79.15
2023-03-27T20:29:34.817Z,77.81
2023-03-27T20:32:01.785Z,81.08
2023-03-27T20:34:28.605Z,83.06
2023-03-27T20:36:59.006Z,86.74
2023-03-27T20:39:49.346Z,86.34
2023-03-27T20:42:18.732Z,88.48
2023-03-27T20:44:46.697Z,87.55
2023-03-27T20:47:15.207Z,86.58
2023-03-27T20:49:45.337Z,90.87
2023-03-27T20:52:14.212Z,87.12
2023-03-27T20:54:41.476Z,84.70
2023-03-27T20:57:10.437Z,87.56
2023-03-27T20:59:37.791Z,87.83
2023-03-27T21:02:05.188Z,95.20
2023-03-27T21:04:32.140Z,96.62
2023-03-27T21:06:59.284Z,96.42
2023-03-27T21:09:27.421Z,93.48
2023-03-27T21:11:55.376Z,92.37
2023-03-27T21:14:22.846Z,93.17
2023-03-27T21:16:50.599Z,88.61
2023-03-27T21:19:19.994Z,88.47
2023-03-27T21:21:47.124Z,91.25
2023-03-27T21:24:14.029Z,94.84
2023-03-27T21:26:41.581Z,92.29
2023-03-27T21:29:12.789Z,95.17
2023-03-27T21:31:40.747Z,91.84
2023-03-27T21:34:08.066Z,93.26
2023-03-27T21:36:35.087Z,91.96
2023-03-27T21:39:01.790Z,96.44
2023-03-27T21:41:28.949Z,96.81
2023-03-27T21:43:56.184Z,95.78
2023-03-27T21:46:23.154Z,100.00
2023-03-27T21:48:50.925Z,98.77
2023-03-27T21:51:18.306Z,99.21
2023-03-27T21:53:45.984Z,99.15
2023-03-27T21:56:13.080Z,99.52
2023-03-27T21:58:39.848Z,100.00
2023-03-27T22:01:07.187Z,94.81
2023-03-27T22:03:34.128Z,93.71
2023-03-27T22:06:11.557Z,92.71
2023-03-27T22:08:40.596Z,88.12
2023-03-27T22:11:07.555Z,85.85
2023-03-27T22:13:36.323Z,87.43
2023-03-27T22:16:14.365Z,92.53
2023-03-27T22:18:42.040Z,98.54
2023-03-27T22:21:22.316Z,100.00
2023-03-27T22:23:50.879Z,100.00
2023-03-27T22:26:18.941Z,100.00
2023-03-27T22:28:46.101Z,100.00
2023-03-27T22:31:13.162Z,100.00
2023-03-27T22:33:40.564Z,100.00
2023-03-27T22:36:09.929Z,100.00
2023-03-27T22:38:36.856Z,100.00
2023-03-27T22:41:05.440Z,100.00
2023-03-27T22:43:32.518Z,100.00
2023-03-27T22:46:11.766Z,100.00
2023-03-27T22:48:38.979Z,100.00
2023-03-27T22:51:06.638Z,100.00
2023-03-27T22:53:33.814Z,100.00
2023-03-27T22:56:01.635Z,100.00
2023-03-27T22:58:29.838Z,100.00
2023-03-27T23:01:38.976Z,100.00
2023-03-27T23:04:06.306Z,100.00
2023-03-27T23:06:33.264Z,100.00
2023-03-27T23:09:01.011Z,100.00
2023-03-27T23:11:28.403Z,100.00
2023-03-27T23:13:55.360Z,100.00
2023-03-27T23:16:22.765Z,100.00
2023-03-27T23:18:49.687Z,100.00
2023-03-27T23:21:17.888Z,100.00
2023-03-27T23:23:45.301Z,100.00
2023-03-27T23:26:12.883Z,100.00
2023-03-27T23:28:41.748Z,100.00
2023-03-27T23:31:13.168Z,100.00
2023-03-27T23:33:42.302Z,100.00
2023-03-27T23:36:11.876Z,100.00
2023-03-27T23:38:39.136Z,100.00
2023-03-27T23:41:07.130Z,100.00
2023-03-27T23:43:34.583Z,100.00
2023-03-27T23:46:02.092Z,100.00
2023-03-27T23:48:29.865Z,100.00
2023-03-27T23:50:57.255Z,100.00
2023-03-27T23:53:28.521Z,100.00
2023-03-27T23:55:56.464Z,100.00
2023-03-27T23:58:25.025Z,100.00
